createdAt,value
2023-05-22T00:00:35.506Z,19.30
2023-05-22T00:03:03.740Z,19.40
2023-05-22T00:05:31.164Z,19.30
2023-05-22T00:07:57.949Z,19.40
2023-05-22T00:10:24.787Z,19.30
2023-05-22T00:12:51.765Z,19.10
2023-05-22T00:15:18.619Z,19.10
2023-05-22T00:17:45.956Z,19.20
2023-05-22T00:20:12.938Z,19.20
2023-05-22T00:22:39.731Z,19.20
2023-05-22T00:25:07.612Z,19.20
2023-05-22T00:27:34.954Z,19.20
2023-05-22T00:30:01.920Z,19.20
2023-05-22T00:32:29.076Z,19.20
2023-05-22T00:34:56.111Z,19.10
2023-05-22T00:37:23.222Z,19.30
2023-05-22T00:39:50.214Z,19.10
2023-05-22T00:42:18.464Z,19.00
2023-05-22T00:44:45.989Z,19.00
2023-05-22T00:47:12.928Z,19.00
2023-05-22T00:49:40.672Z,19.10
2023-05-22T00:52:08.317Z,19.20
2023-05-22T00:54:35.672Z,19.10
2023-05-22T00:57:03.664Z,19.20
2023-05-22T00:59:31.370Z,19.10
2023-05-22T01:01:59.417Z,19.10
2023-05-22T01:04:26.448Z,19.20
2023-05-22T01:06:54.060Z,19.10
2023-05-22T01:09:20.914Z,19.10
2023-05-22T01:12:15.699Z,19.20
2023-05-22T01:14:58.850Z,19.20
2023-05-22T01:17:48.107Z,19.10
2023-05-22T01:20:33.456Z,19.10
2023-05-22T01:23:24.376Z,19.10
2023-05-22T01:26:24.774Z,19.00
2023-05-22T01:28:54.549Z,19.10
2023-05-22T01:31:27.076Z,19.10
2023-05-22T01:33:56.890Z,19.00
2023-05-22T01:36:31.022Z,19.00
2023-05-22T01:39:01.416Z,19.00
2023-05-22T01:41:29.928Z,19.00
2023-05-22T01:43:57.338Z,19.00
2023-05-22T01:46:31.024Z,19.00
2023-05-22T01:48:58.491Z,18.90
2023-05-22T01:51:55.929Z,18.90
2023-05-22T01:54:48.541Z,18.70
2023-05-22T01:57:21.965Z,18.70
2023-05-22T02:00:21.406Z,18.80
2023-05-22T02:03:01.362Z,18.80
2023-05-22T02:05:31.762Z,18.80
2023-05-22T02:08:02.145Z,18.90
2023-05-22T02:10:30.758Z,18.80
2023-05-22T02:12:57.728Z,18.90
2023-05-22T02:15:24.597Z,18.90
2023-05-22T02:17:53.306Z,18.80
2023-05-22T02:20:20.358Z,18.70
2023-05-22T02:22:48.221Z,18.60
2023-05-22T02:25:17.025Z,18.60
2023-05-22T02:27:45.746Z,18.60
2023-05-22T02:30:13.467Z,18.60
2023-05-22T02:32:41.600Z,18.70
2023-05-22T02:35:09.056Z,18.60
2023-05-22T02:37:36.153Z,18.60
2023-05-22T02:40:06.175Z,18.70
2023-05-22T02:42:33.689Z,18.60
2023-05-22T02:45:00.869Z,18.70
2023-05-22T02:47:27.877Z,18.60
2023-05-22T02:49:54.876Z,18.50
2023-05-22T02:52:22.534Z,18.50
2023-05-22T02:54:49.319Z,18.60
2023-05-22T02:57:16.442Z,18.60
2023-05-22T02:59:44.377Z,18.50
2023-05-22T03:02:12.305Z,18.50
2023-05-22T03:04:39.151Z,18.40
2023-05-22T03:07:07.236Z,18.50
2023-05-22T03:09:34.374Z,18.30
2023-05-22T03:12:01.223Z,18.40
2023-05-22T03:14:29.216Z,18.20
2023-05-22T03:16:56.698Z,18.20
2023-05-22T03:19:23.981Z,18.20
2023-05-22T17:08:14.157Z,18.00
2023-05-22T17:10:41.711Z,21.80
2023-05-22T17:13:08.740Z,21.30
2023-05-22T17:15:35.867Z,21.00
2023-05-22T17:18:03.093Z,20.90
2023-05-22T17:20:29.953Z,20.70
2023-05-22T17:22:56.745Z,20.80
2023-05-22T17:25:23.688Z,20.70
2023-05-22T17:27:50.480Z,20.60
2023-05-22T17:30:17.826Z,20.50
2023-05-22T17:32:45.427Z,20.40
2023-05-22T17:35:12.385Z,20.40
2023-05-22T17:37:39.253Z,20.60
2023-05-22T17:40:06.739Z,20.50
2023-05-22T17:42:33.617Z,20.50
2023-05-22T17:45:00.571Z,20.50
2023-05-22T17:47:27.494Z,20.60
2023-05-22T17:49:54.313Z,20.80
2023-05-22T17:52:21.128Z,20.70
2023-05-22T17:54:49.876Z,20.70
2023-05-22T17:57:16.710Z,20.70
2023-05-22T17:59:44.323Z,20.50
2023-05-22T18:02:11.307Z,20.60
2023-05-22T18:04:38.197Z,20.70
2023-05-22T18:07:05.360Z,20.70
2023-05-22T18:09:32.743Z,20.60
2023-05-22T18:12:01.619Z,20.70
2023-05-22T18:14:28.611Z,20.80
